Time;durP1;ratioP1;P1;durP2;ratioP2;P2;SDS_P1;SDS_P2;PMS_P1;PMS_P2;Temp;Humidity;BMP_temperature;BMP_pressure;BME280_temperature;BME280_humidity;BME280_pressure;Samples;Min_cycle;Max_cycle;Signal;HPM_P1;HPM_P2
2022/07/09 00:02:03;;;;;;;15.60;3.50;;;15.50;99.90;;;;;;4957912;29;20174;-79
2022/07/09 00:04:28;;;;;;;7.77;3.10;;;15.40;99.90;;;;;;4958226;29;20323;-79
2022/07/09 00:06:54;;;;;;;7.57;3.97;;;15.40;99.90;;;;;;4958239;29;20248;-79
2022/07/09 00:09:19;;;;;;;10.50;3.40;;;15.40;99.90;;;;;;4956708;29;20186;-79
2022/07/09 00:11:45;;;;;;;7.50;2.77;;;15.30;99.90;;;;;;4958174;29;20185;-79
2022/07/09 00:14:10;;;;;;;10.00;3.03;;;15.20;99.90;;;;;;4958089;29;20285;-79
2022/07/09 00:16:35;;;;;;;8.27;2.20;;;15.20;99.90;;;;;;4957642;29;20637;-79
2022/07/09 00:19:01;;;;;;;10.40;2.90;;;15.00;99.90;;;;;;4957966;29;20178;-79
2022/07/09 00:21:26;;;;;;;6.80;2.50;;;15.00;99.90;;;;;;4958000;29;20642;-79
2022/07/09 00:23:52;;;;;;;7.70;3.10;;;15.00;99.90;;;;;;4957724;29;20210;-80
2022/07/09 00:26:18;;;;;;;9.47;2.90;;;15.00;99.90;;;;;;4957877;29;20171;-79
2022/07/09 00:28:44;;;;;;;7.00;3.57;;;15.00;99.90;;;;;;4958010;29;20174;-79
2022/07/09 00:31:10;;;;;;;5.30;2.60;;;14.90;99.90;;;;;;4957685;29;20499;-79
2022/07/09 00:33:35;;;;;;;6.53;2.80;;;14.80;99.90;;;;;;4957439;29;20656;-79
2022/07/09 00:36:01;;;;;;;7.17;2.93;;;14.80;99.90;;;;;;4957689;29;20183;-81
2022/07/09 00:38:26;;;;;;;10.43;3.43;;;14.80;99.90;;;;;;4956478;29;20181;-79
2022/07/09 00:40:52;;;;;;;8.60;2.80;;;14.70;99.90;;;;;;4957669;29;20531;-80
2022/07/09 00:43:19;;;;;;;6.73;2.53;;;14.70;99.90;;;;;;4957527;29;20211;-80
2022/07/09 00:45:45;;;;;;;5.90;2.57;;;14.70;99.90;;;;;;4957466;29;20177;-79
2022/07/09 00:48:11;;;;;;;7.60;3.20;;;14.70;99.90;;;;;;4957136;29;20513;-79
2022/07/09 00:50:37;;;;;;;7.83;3.50;;;14.70;99.90;;;;;;4957420;29;20509;-79
2022/07/09 00:53:02;;;;;;;8.57;2.67;;;14.70;99.90;;;;;;4957432;29;20175;-79
2022/07/09 00:55:28;;;;;;;7.37;2.80;;;14.70;99.90;;;;;;4957423;29;20558;-84
2022/07/09 00:57:54;;;;;;;11.07;3.70;;;14.70;99.90;;;;;;4957321;29;20530;-82
2022/07/09 01:00:20;;;;;;;10.93;3.37;;;14.70;99.90;;;;;;4956100;29;20174;-84
2022/07/09 01:02:49;;;;;;;7.70;3.70;;;14.70;99.90;;;;;;4956586;28;20476;-83
2022/07/09 01:05:14;;;;;;;11.10;2.53;;;14.70;99.90;;;;;;4957205;29;20185;-83
2022/07/09 01:07:40;;;;;;;8.47;3.00;;;14.70;99.90;;;;;;4957184;29;20790;-82
2022/07/09 01:10:06;;;;;;;7.83;3.73;;;14.70;99.90;;;;;;4956868;29;20230;-82
2022/07/09 01:12:32;;;;;;;9.10;3.30;;;14.70;99.90;;;;;;4957107;29;20178;-79
2022/07/09 01:14:57;;;;;;;12.50;3.90;;;14.80;99.90;;;;;;4956950;29;20251;-79
2022/07/09 01:17:23;;;;;;;10.03;3.30;;;14.90;99.90;;;;;;4956595;29;20449;-79
2022/07/09 01:19:48;;;;;;;8.77;3.73;;;14.90;99.90;;;;;;4956963;29;20174;-80
2022/07/09 01:22:14;;;;;;;9.43;3.20;;;14.90;99.90;;;;;;4956791;29;20224;-79
2022/07/09 01:24:40;;;;;;;5.90;2.67;;;14.90;99.90;;;;;;4956787;29;20270;-79
2022/07/09 01:27:06;;;;;;;7.90;3.20;;;14.90;99.90;;;;;;4956796;29;20567;-79
2022/07/09 01:29:31;;;;;;;8.77;2.77;;;14.90;99.90;;;;;;4956726;29;20422;-79
2022/07/09 01:31:57;;;;;;;6.63;2.70;;;14.90;99.90;;;;;;4956286;29;20747;-79
2022/07/09 01:34:22;;;;;;;7.00;3.30;;;14.90;99.90;;;;;;4956588;29;20651;-79
2022/07/09 01:36:48;;;;;;;7.23;4.43;;;14.90;99.90;;;;;;4956640;29;20208;-80
2022/07/09 01:39:14;;;;;;;7.90;3.23;;;14.90;99.90;;;;;;4956524;29;20335;-79
2022/07/09 01:41:39;;;;;;;6.77;3.10;;;14.90;99.90;;;;;;4956507;29;20230;-79
2022/07/09 01:44:06;;;;;;;11.37;3.10;;;14.90;99.90;;;;;;4956353;29;20218;-79
2022/07/09 01:46:32;;;;;;;8.40;2.80;;;15.00;99.90;;;;;;4956017;29;20208;-79
2022/07/09 01:48:58;;;;;;;11.40;3.00;;;14.90;99.90;;;;;;4956334;29;20841;-79
2022/07/09 01:51:23;;;;;;;7.03;2.17;;;14.90;99.90;;;;;;4956561;29;20638;-79
2022/07/09 01:53:49;;;;;;;12.50;3.13;;;15.00;99.90;;;;;;4955079;29;20175;-79
2022/07/09 01:56:14;;;;;;;11.00;2.70;;;15.00;99.90;;;;;;4956214;29;20186;-79
2022/07/09 01:58:40;;;;;;;8.43;2.53;;;15.00;99.90;;;;;;4956173;29;20162;-79
2022/07/09 02:01:06;;;;;;;5.33;2.43;;;15.00;99.90;;;;;;4956167;29;20652;-79
2022/07/09 02:03:31;;;;;;;7.20;2.60;;;15.00;99.90;;;;;;4955728;29;20243;-79
2022/07/09 02:05:57;;;;;;;6.70;2.30;;;15.00;99.90;;;;;;4956030;29;20412;-79
2022/07/09 02:08:23;;;;;;;8.53;2.43;;;15.00;99.90;;;;;;4956043;29;20178;-79
2022/07/09 02:10:52;;;;;;;9.67;3.47;;;14.90;99.90;;;;;;4955764;29;20219;-79
2022/07/09 02:13:18;;;;;;;8.03;1.97;;;14.90;99.90;;;;;;4954842;29;20414;-79
2022/07/09 02:15:43;;;;;;;7.83;3.60;;;14.90;99.90;;;;;;4955312;28;20417;-79
2022/07/09 02:18:09;;;;;;;7.80;2.53;;;14.90;99.90;;;;;;4955459;29;20528;-79
2022/07/09 02:20:34;;;;;;;8.83;2.60;;;14.90;99.90;;;;;;4954551;29;20184;-79
2022/07/09 02:23:00;;;;;;;14.13;3.80;;;14.90;99.90;;;;;;4955642;29;20698;-79
2022/07/09 02:25:25;;;;;;;7.20;2.80;;;14.90;99.90;;;;;;4955697;29;20174;-79
2022/07/09 02:27:51;;;;;;;6.77;2.63;;;14.90;99.90;;;;;;4955690;29;20579;-80
2022/07/09 02:30:16;;;;;;;8.23;2.90;;;15.00;99.90;;;;;;4955644;29;20183;-79
2022/07/09 02:32:42;;;;;;;9.90;2.97;;;15.00;99.90;;;;;;4955278;29;20169;-79
2022/07/09 02:35:08;;;;;;;7.73;2.67;;;15.00;99.90;;;;;;4955394;29;20180;-80
2022/07/09 02:37:33;;;;;;;8.60;3.30;;;15.00;99.90;;;;;;4955526;29;20203;-79
2022/07/09 02:39:59;;;;;;;4.93;2.97;;;15.00;99.90;;;;;;4955481;29;20177;-79
2022/07/09 02:42:25;;;;;;;10.20;2.67;;;14.90;99.90;;;;;;4955377;29;20264;-79
2022/07/09 02:44:50;;;;;;;8.37;2.47;;;15.00;99.90;;;;;;4955393;29;20535;-79
2022/07/09 02:47:16;;;;;;;11.33;3.63;;;15.00;99.90;;;;;;4954964;29;20225;-79
2022/07/09 02:49:41;;;;;;;6.73;2.77;;;15.00;99.90;;;;;;4955354;29;20181;-79
2022/07/09 02:52:07;;;;;;;10.83;2.07;;;15.00;99.90;;;;;;4954054;29;20220;-79
2022/07/09 02:54:33;;;;;;;6.43;2.23;;;15.00;99.90;;;;;;4954031;29;20578;-79
2022/07/09 02:56:59;;;;;;;8.73;2.37;;;15.00;99.90;;;;;;4955225;29;20630;-79
2022/07/09 02:59:25;;;;;;;10.90;2.47;;;15.00;99.90;;;;;;4955181;29;20422;-79
2022/07/09 03:01:51;;;;;;;5.57;1.90;;;15.10;99.90;;;;;;4954793;29;20525;-78
2022/07/09 03:04:16;;;;;;;9.87;2.27;;;15.10;99.90;;;;;;4954954;29;20576;-79
2022/07/09 03:06:42;;;;;;;6.23;2.67;;;15.10;99.90;;;;;;4955884;29;20177;-81
2022/07/09 03:09:08;;;;;;;8.67;2.83;;;15.10;99.90;;;;;;4968434;29;20194;-83
2022/07/09 03:11:33;;;;;;;7.87;1.90;;;15.10;99.90;;;;;;4970510;29;20187;-83
2022/07/09 03:13:59;;;;;;;10.03;3.17;;;15.10;99.90;;;;;;4972092;29;20409;-82
2022/07/09 03:16:24;;;;;;;7.73;2.43;;;15.10;99.90;;;;;;4970637;29;20193;-83
2022/07/09 03:18:49;;;;;;;8.20;1.97;;;15.10;99.90;;;;;;4970592;29;20174;-81
2022/07/09 03:21:15;;;;;;;8.47;2.77;;;15.10;99.90;;;;;;4970125;29;20298;-82
2022/07/09 03:23:40;;;;;;;8.37;2.87;;;15.10;99.90;;;;;;4968973;29;20709;-81
2022/07/09 03:26:06;;;;;;;8.43;2.87;;;15.10;99.90;;;;;;4961041;28;20181;-80
2022/07/09 03:28:33;;;;;;;8.43;2.53;;;15.10;99.90;;;;;;4958967;29;20249;-80
2022/07/09 03:30:58;;;;;;;8.70;3.07;;;15.10;99.90;;;;;;4957309;29;20460;-81
2022/07/09 03:33:24;;;;;;;7.03;2.13;;;15.10;99.90;;;;;;4958791;29;20844;-83
2022/07/09 03:35:50;;;;;;;7.73;2.90;;;15.10;99.90;;;;;;4958829;29;20177;-83
2022/07/09 03:38:15;;;;;;;4.00;2.53;;;15.10;99.90;;;;;;4958686;29;20194;-80
2022/07/09 03:40:41;;;;;;;7.23;3.17;;;15.10;99.90;;;;;;4958740;29;20175;-79
2022/07/09 03:43:06;;;;;;;10.80;3.03;;;15.10;99.90;;;;;;4958567;29;20208;-79
2022/07/09 03:45:31;;;;;;;10.17;2.83;;;15.10;99.90;;;;;;4958631;29;20182;-79
2022/07/09 03:47:57;;;;;;;8.20;2.90;;;15.10;99.90;;;;;;4958251;29;20534;-81
2022/07/09 03:50:23;;;;;;;10.83;2.90;;;15.10;99.90;;;;;;4958448;29;20252;-79
2022/07/09 03:52:49;;;;;;;5.70;2.17;;;15.20;99.90;;;;;;4957192;29;20662;-79
2022/07/09 03:55:14;;;;;;;5.63;2.30;;;15.10;99.90;;;;;;4958385;29;20188;-79
2022/07/09 03:57:40;;;;;;;8.60;2.70;;;15.10;99.90;;;;;;4958368;29;20457;-79
2022/07/09 04:00:07;;;;;;;8.40;2.53;;;15.10;99.90;;;;;;4958383;29;20542;-80
2022/07/09 04:02:32;;;;;;;7.80;3.10;;;15.10;99.90;;;;;;4957875;29;20206;-79
2022/07/09 04:04:58;;;;;;;5.83;2.80;;;15.10;99.90;;;;;;4957045;29;20425;-79
2022/07/09 04:07:26;;;;;;;5.67;2.50;;;15.10;99.90;;;;;;4958203;29;20178;-79
2022/07/09 04:09:53;;;;;;;3.27;2.27;;;15.10;99.90;;;;;;4957985;29;20221;-79
2022/07/09 04:12:18;;;;;;;7.07;2.43;;;15.10;99.90;;;;;;4958140;29;20839;-79
2022/07/09 04:14:44;;;;;;;8.57;1.87;;;15.20;99.90;;;;;;4958101;29;20457;-80
2022/07/09 04:17:09;;;;;;;9.30;2.27;;;15.20;99.90;;;;;;4956567;29;20171;-80
2022/07/09 04:19:35;;;;;;;7.80;2.90;;;15.20;99.90;;;;;;4956756;29;20182;-80
2022/07/09 04:22:02;;;;;;;8.83;3.20;;;15.20;99.90;;;;;;4957945;29;20265;-80
2022/07/09 04:24:27;;;;;;;7.13;2.77;;;15.30;99.90;;;;;;4957918;29;20178;-79
2022/07/09 04:26:53;;;;;;;6.23;2.83;;;15.40;99.90;;;;;;4957904;28;20406;-80
2022/07/09 04:29:18;;;;;;;11.23;3.57;;;15.40;99.90;;;;;;4957863;29;20186;-79
2022/07/09 04:31:44;;;;;;;6.47;2.80;;;15.40;99.90;;;;;;4957484;29;20188;-79
2022/07/09 04:34:09;;;;;;;5.20;1.93;;;15.40;99.90;;;;;;4957747;29;20261;-81
2022/07/09 04:36:35;;;;;;;6.83;1.50;;;15.40;99.90;;;;;;4957837;28;20534;-83
2022/07/09 04:39:00;;;;;;;8.90;2.80;;;15.40;99.90;;;;;;4957152;29;20190;-84
2022/07/09 04:41:26;;;;;;;6.60;2.03;;;15.40;99.90;;;;;;4957688;29;20216;-81
2022/07/09 04:43:51;;;;;;;4.37;2.70;;;15.50;99.90;;;;;;4957704;29;20219;-83
2022/07/09 04:46:17;;;;;;;3.00;1.80;;;15.50;99.90;;;;;;4957141;29;20175;-83
2022/07/09 04:48:42;;;;;;;7.70;2.67;;;15.50;99.90;;;;;;4957486;29;20179;-83
2022/07/09 04:51:08;;;;;;;7.90;2.93;;;15.50;99.90;;;;;;4956216;29;20214;-84
2022/07/09 04:53:33;;;;;;;4.93;2.03;;;15.50;99.90;;;;;;4957427;29;20179;-81
2022/07/09 04:55:59;;;;;;;7.37;2.40;;;15.50;99.90;;;;;;4957330;29;20188;-83
2022/07/09 04:58:24;;;;;;;9.10;3.00;;;15.50;99.90;;;;;;4956014;29;20180;-84
2022/07/09 05:00:50;;;;;;;6.73;1.87;;;15.50;99.90;;;;;;4956976;29;20189;-82
2022/07/09 05:03:15;;;;;;;5.70;2.60;;;15.60;99.90;;;;;;4955915;29;20697;-83
2022/07/09 05:05:41;;;;;;;6.30;2.17;;;15.60;99.90;;;;;;4956008;29;20541;-84
2022/07/09 05:08:07;;;;;;;6.67;2.00;;;15.60;99.90;;;;;;4957130;29;20178;-83
2022/07/09 05:10:32;;;;;;;8.17;2.13;;;15.60;99.90;;;;;;4956840;29;20222;-84
2022/07/09 05:12:57;;;;;;;12.43;4.97;;;15.60;99.90;;;;;;4957094;29;20186;-82
2022/07/09 05:15:23;;;;;;;7.37;1.70;;;15.60;99.90;;;;;;4957061;29;20715;-80
2022/07/09 05:17:48;;;;;;;3.90;1.80;;;15.70;99.90;;;;;;4956618;29;20302;-84
2022/07/09 05:20:14;;;;;;;8.60;2.27;;;15.70;99.90;;;;;;4956960;29;20529;-84
2022/07/09 05:22:39;;;;;;;5.67;2.10;;;15.80;99.90;;;;;;4955486;29;20207;-83
2022/07/09 05:25:06;;;;;;;9.23;2.77;;;15.90;99.90;;;;;;4956834;29;20182;-81
2022/07/09 05:27:31;;;;;;;9.33;2.83;;;15.90;99.90;;;;;;4956824;29;20199;-81
2022/07/09 05:29:58;;;;;;;6.23;2.70;;;15.90;99.90;;;;;;4956765;29;20469;-84
2022/07/09 05:32:23;;;;;;;5.10;2.40;;;15.90;99.90;;;;;;4955082;29;20426;-84
2022/07/09 05:34:49;;;;;;;4.20;1.67;;;15.90;99.90;;;;;;4956622;29;20431;-84
2022/07/09 05:37:14;;;;;;;5.40;2.63;;;15.90;99.90;;;;;;4956721;29;20277;-83
2022/07/09 05:39:40;;;;;;;6.00;2.67;;;15.90;99.90;;;;;;4956680;29;20528;-84
2022/07/09 05:42:06;;;;;;;4.90;2.20;;;16.00;99.90;;;;;;4956503;29;20175;-83
2022/07/09 05:44:32;;;;;;;4.30;2.17;;;16.10;99.90;;;;;;4956467;29;20553;-81
2022/07/09 05:46:57;;;;;;;5.63;2.30;;;16.10;99.90;;;;;;4956035;29;20235;-83
2022/07/09 05:49:23;;;;;;;6.67;2.63;;;16.10;99.90;;;;;;4955539;28;20184;-83
2022/07/09 05:51:48;;;;;;;4.80;1.80;;;16.10;99.90;;;;;;4956323;29;20638;-84
2022/07/09 05:54:14;;;;;;;10.53;2.50;;;16.10;99.90;;;;;;4956287;29;20301;-83
2022/07/09 05:56:40;;;;;;;4.93;1.33;;;16.10;99.90;;;;;;4956285;29;20691;-82
2022/07/09 05:59:06;;;;;;;4.53;1.70;;;16.10;99.90;;;;;;4956224;29;20171;-84
2022/07/09 06:01:32;;;;;;;3.70;1.40;;;16.10;99.90;;;;;;4955793;29;20436;-84
2022/07/09 06:03:57;;;;;;;6.10;1.63;;;16.10;99.90;;;;;;4956085;29;20215;-82
2022/07/09 06:06:23;;;;;;;7.80;3.00;;;16.20;99.90;;;;;;4956046;29;20227;-82
2022/07/09 06:08:48;;;;;;;4.47;1.60;;;16.30;99.90;;;;;;4954832;29;20657;-83
2022/07/09 06:11:14;;;;;;;4.63;1.90;;;16.40;99.90;;;;;;4955973;29;20629;-80
2022/07/09 06:13:40;;;;;;;4.30;1.43;;;16.30;99.90;;;;;;4955867;29;20182;-84
2022/07/09 06:16:06;;;;;;;4.83;1.90;;;16.20;99.90;;;;;;4955682;29;20202;-79
2022/07/09 06:18:31;;;;;;;5.20;1.60;;;16.20;99.90;;;;;;4955826;29;20224;-83
2022/07/09 06:20:57;;;;;;;3.93;1.40;;;16.30;99.90;;;;;;4955798;29;20416;-82
2022/07/09 06:23:23;;;;;;;3.63;1.60;;;16.50;99.90;;;;;;4955655;29;20538;-82
2022/07/09 06:25:48;;;;;;;3.10;2.00;;;16.60;99.90;;;;;;4955646;29;20424;-83
2022/07/09 06:28:14;;;;;;;5.70;2.83;;;16.50;99.90;;;;;;4955739;29;20190;-82
2022/07/09 06:30:39;;;;;;;8.03;1.43;;;16.50;99.90;;;;;;4955294;29;20206;-82
2022/07/09 06:33:05;;;;;;;7.67;2.10;;;16.70;99.90;;;;;;4955576;29;20220;-83
2022/07/09 06:35:31;;;;;;;4.80;2.53;;;16.80;99.90;;;;;;4955592;29;20180;-82
2022/07/09 06:37:57;;;;;;;5.73;1.60;;;16.90;99.90;;;;;;4954278;29;20628;-83
2022/07/09 06:40:22;;;;;;;8.00;1.93;;;17.00;99.90;;;;;;4955437;29;20530;-83
2022/07/09 06:42:48;;;;;;;7.47;3.00;;;17.00;99.90;;;;;;4955410;29;20468;-80
2022/07/09 06:45:14;;;;;;;4.30;1.83;;;17.10;99.90;;;;;;4955458;29;20182;-82
2022/07/09 06:47:40;;;;;;;7.23;2.67;;;17.30;99.90;;;;;;4955176;29;20593;-82
2022/07/09 06:50:05;;;;;;;4.50;2.10;;;17.60;99.90;;;;;;4954059;29;20422;-81
2022/07/09 06:52:31;;;;;;;6.53;1.70;;;17.80;99.90;;;;;;4955262;29;20175;-82
2022/07/09 06:54:57;;;;;;;3.20;1.60;;;17.60;99.90;;;;;;4955256;29;20234;-81
2022/07/09 06:57:22;;;;;;;4.27;2.03;;;17.60;99.90;;;;;;4955251;29;20300;-81
2022/07/09 06:59:47;;;;;;;4.63;3.23;;;17.60;99.90;;;;;;4955110;28;20181;-83
2022/07/09 07:02:15;;;;;;;6.30;2.53;;;17.70;99.90;;;;;;4954669;29;20267;-81
2022/07/09 07:04:41;;;;;;;4.73;2.60;;;17.80;99.90;;;;;;4955155;29;20539;-81
2022/07/09 07:07:06;;;;;;;6.13;2.30;;;17.80;99.90;;;;;;4955097;29;20428;-82
2022/07/09 07:09:31;;;;;;;5.53;2.37;;;17.90;99.90;;;;;;4954874;29;20253;-80
2022/07/09 07:11:57;;;;;;;7.60;3.07;;;;;;;;;;4955004;29;20229;-83
2022/07/09 07:14:24;;;;;;;5.77;2.40;;;18.70;99.90;;;;;;4955023;28;20220;-84
2022/07/09 07:16:50;;;;;;;2.63;1.97;;;18.40;99.90;;;;;;4953363;29;20807;-82
2022/07/09 07:19:16;;;;;;;6.67;3.03;;;18.20;99.90;;;;;;4953718;29;20448;-81
2022/07/09 07:21:42;;;;;;;5.20;2.80;;;18.20;99.90;;;;;;4954929;29;20522;-83
2022/07/09 07:24:08;;;;;;;6.10;3.27;;;18.20;99.90;;;;;;4953666;29;20629;-83
2022/07/09 07:26:34;;;;;;;4.43;2.73;;;18.00;99.90;;;;;;4954831;29;20536;-83
2022/07/09 07:29:00;;;;;;;8.60;3.37;;;18.00;99.90;;;;;;4954996;29;20432;-82
2022/07/09 07:31:26;;;;;;;4.60;2.80;;;18.20;99.90;;;;;;4954487;29;20420;-82
2022/07/09 07:33:52;;;;;;;4.10;2.30;;;18.40;99.90;;;;;;4954980;29;20188;-83
2022/07/09 07:36:18;;;;;;;6.13;2.20;;;18.20;99.90;;;;;;4954863;29;20175;-81
2022/07/09 07:38:45;;;;;;;6.77;2.90;;;18.30;99.90;;;;;;4954776;29;20188;-83
2022/07/09 07:41:11;;;;;;;6.67;3.43;;;18.20;99.90;;;;;;4954737;29;20508;-82
2022/07/09 07:43:37;;;;;;;5.90;3.33;;;18.40;99.90;;;;;;4954665;29;20988;-81
2022/07/09 07:46:02;;;;;;;4.10;2.70;;;18.60;99.90;;;;;;4954374;29;20478;-86
2022/07/09 07:48:30;;;;;;;7.23;2.30;;;18.50;99.90;;;;;;4953501;29;20717;-84
2022/07/09 07:50:56;;;;;;;3.93;3.50;;;18.50;99.90;;;;;;4954767;29;20259;-81
2022/07/09 07:53:21;;;;;;;3.40;2.10;;;19.20;99.90;;;;;;4954692;29;20841;-80
2022/07/09 07:55:47;;;;;;;4.93;1.60;;;20.30;1.00;;;;;;4954660;29;20177;-81
2022/07/09 07:58:12;;;;;;;2.70;1.47;;;21.30;99.90;;;;;;4954609;29;20167;-83
2022/07/09 08:00:38;;;;;;;4.13;1.50;;;22.00;12.30;;;;;;4954285;29;20180;-80
2022/07/09 08:03:04;;;;;;;2.60;1.20;;;21.40;1.00;;;;;;4954597;29;20675;-79
2022/07/09 08:05:29;;;;;;;2.70;1.40;;;20.50;1.00;;;;;;4954603;29;20176;-80
2022/07/09 08:07:55;;;;;;;3.63;1.17;;;21.20;1.00;;;;;;4954589;29;20431;-79
2022/07/09 08:10:20;;;;;;;3.93;1.83;;;21.30;1.00;;;;;;4954395;29;20593;-83
2022/07/09 08:12:46;;;;;;;3.90;2.10;;;20.40;1.00;;;;;;4955809;28;20166;-78
2022/07/09 08:15:12;;;;;;;4.00;1.83;;;20.10;1.00;;;;;;4957837;29;20176;-79
2022/07/09 08:17:37;;;;;;;2.60;1.73;;;21.20;1.00;;;;;;4958086;29;20169;-79
2022/07/09 08:20:04;;;;;;;4.30;1.70;;;21.60;1.00;;;;;;4957999;29;20206;-81
2022/07/09 08:22:30;;;;;;;1.73;0.90;;;21.90;1.00;;;;;;4957835;28;20715;-80
2022/07/09 08:24:55;;;;;;;2.93;1.60;;;21.70;99.90;;;;;;4957960;29;20514;-80
2022/07/09 08:27:21;;;;;;;3.10;1.00;;;22.50;1.00;;;;;;4957760;29;20176;-81
2022/07/09 08:29:48;;;;;;;1.10;0.50;;;21.90;1.00;;;;;;4957844;29;20177;-78
2022/07/09 08:32:14;;;;;;;3.57;1.40;;;23.40;1.00;;;;;;4957419;29;20181;-78
2022/07/09 08:34:39;;;;;;;3.90;0.67;;;22.40;30.60;;;;;;4956484;29;20969;-78
2022/07/09 08:37:05;;;;;;;2.90;0.77;;;21.90;99.90;;;;;;4957844;29;20220;-78
2022/07/09 08:39:30;;;;;;;2.90;1.10;;;20.80;1.00;;;;;;4956476;29;20235;-78
2022/07/09 08:41:58;;;;;;;4.57;1.30;;;20.00;1.00;;;;;;4957554;29;20201;-78
2022/07/09 08:44:29;;;;;;;2.40;0.87;;;19.70;1.00;;;;;;4957527;29;20215;-78
2022/07/09 08:46:58;;;;;;;4.63;0.97;;;19.60;1.00;;;;;;4957268;29;20411;-79
2022/07/09 08:49:25;;;;;;;5.07;1.57;;;19.60;1.00;;;;;;4956264;29;20463;-79
2022/07/09 08:51:53;;;;;;;3.83;1.00;;;19.70;1.00;;;;;;4957478;29;21011;-79
2022/07/09 08:54:20;;;;;;;3.20;0.93;;;19.90;1.00;;;;;;4956169;29;20439;-79
2022/07/09 08:56:46;;;;;;;2.70;1.17;;;20.20;1.00;;;;;;4957378;29;20469;-82
2022/07/09 08:59:11;;;;;;;3.50;0.80;;;21.70;99.90;;;;;;4957385;29;20495;-82
2022/07/09 09:01:36;;;;;;;1.70;1.30;;;20.90;99.90;;;;;;4956968;29;20671;-80
2022/07/09 09:04:02;;;;;;;3.00;1.50;;;20.30;1.00;;;;;;4957235;29;20214;-83
2022/07/09 09:06:28;;;;;;;3.57;0.90;;;20.10;1.00;;;;;;4957202;29;20186;-83
2022/07/09 09:08:55;;;;;;;5.13;2.00;;;20.10;1.00;;;;;;4957127;29;20180;-86
2022/07/09 09:11:22;;;;;;;3.53;1.20;;;21.50;1.00;;;;;;4957010;29;20227;-83
2022/07/09 09:13:48;;;;;;;5.13;1.00;;;21.00;99.90;;;;;;4955859;29;20801;-84
2022/07/09 09:16:16;;;;;;;1.93;0.83;;;20.70;99.90;;;;;;4956562;29;20932;-81
2022/07/09 09:18:43;;;;;;;2.10;0.60;;;20.20;1.00;;;;;;4956890;29;20907;-85
2022/07/09 09:21:10;;;;;;;3.00;0.77;;;21.00;99.90;;;;;;4956859;29;20410;-83
2022/07/09 09:23:44;;;;;;;2.17;0.63;;;23.80;99.90;;;;;;4956872;28;20468;-84
2022/07/09 09:26:15;;;;;;;1.53;0.50;;;25.70;1.00;;;;;;4956808;29;20421;-81
2022/07/09 09:28:56;;;;;;;1.70;0.30;;;26.50;99.90;;;;;;4956771;29;20492;-78
2022/07/09 09:31:29;;;;;;;2.57;0.30;;;27.10;99.90;;;;;;4956391;29;20491;-82
2022/07/09 09:34:04;;;;;;;1.30;0.20;;;26.10;99.90;;;;;;4956665;29;20455;-81
2022/07/09 09:36:33;;;;;;;1.67;0.60;;;25.50;99.90;;;;;;4956679;29;20743;-82
2022/07/09 09:39:09;;;;;;;1.07;0.77;;;23.90;99.90;;;;;;4956633;29;20758;-81
2022/07/09 09:41:34;;;;;;;3.60;0.73;;;24.70;99.90;;;;;;4956468;29;20983;-79
2022/07/09 09:44:05;;;;;;;2.10;0.40;;;23.30;99.90;;;;;;4956383;29;20512;-83
2022/07/09 09:46:33;;;;;;;2.70;0.33;;;24.40;1.00;;;;;;4956205;29;20169;-84
2022/07/09 09:48:59;;;;;;;1.57;0.30;;;25.80;99.90;;;;;;4956413;29;20421;-81
2022/07/09 09:51:29;;;;;;;1.70;0.30;;;27.10;99.90;;;;;;4956349;29;20428;-81
2022/07/09 09:53:55;;;;;;;3.67;0.40;;;27.80;99.90;;;;;;4956332;29;20175;-86
2022/07/09 09:56:20;;;;;;;2.53;0.30;;;27.80;99.90;;;;;;4956240;29;20941;-84
2022/07/09 09:58:46;;;;;;;2.03;0.30;;;27.60;99.90;;;;;;4956285;29;20638;-85
2022/07/09 10:01:12;;;;;;;2.73;0.37;;;27.80;96.10;;;;;;4955798;29;20189;-86
2022/07/09 10:03:39;;;;;;;1.40;0.30;;;27.60;99.90;;;;;;4956200;29;20225;-84
2022/07/09 10:06:06;;;;;;;1.07;0.40;;;27.40;97.10;;;;;;4956099;29;20626;-85
2022/07/09 10:08:32;;;;;;;1.07;0.20;;;26.70;99.90;;;;;;4956030;29;20425;-81
2022/07/09 10:10:57;;;;;;;1.50;0.27;;;26.20;99.90;;;;;;4955972;29;20482;-82
2022/07/09 10:13:23;;;;;;;3.90;1.20;;;24.60;99.90;;;;;;4956063;29;20184;-80
2022/07/09 10:15:49;;;;;;;2.77;0.60;;;25.10;99.90;;;;;;4955630;29;20597;-79
2022/07/09 10:18:18;;;;;;;3.33;0.37;;;26.20;99.90;;;;;;4954657;29;20544;-81
2022/07/09 10:20:44;;;;;;;2.00;0.30;;;27.10;99.90;;;;;;4955880;29;20260;-86
2022/07/09 10:23:21;;;;;;;3.50;0.60;;;27.40;87.50;;;;;;4955707;28;20480;-86
2022/07/09 10:25:47;;;;;;;1.00;0.33;;;25.90;82.30;;;;;;4955872;29;20504;-84
2022/07/09 10:28:17;;;;;;;2.83;0.40;;;27.30;97.20;;;;;;4955664;29;20493;-87
2022/07/09 10:30:42;;;;;;;1.37;0.20;;;28.00;76.50;;;;;;4955451;29;20424;-84
2022/07/09 10:33:10;;;;;;;1.60;0.20;;;27.80;57.00;;;;;;4955622;29;20431;-87
2022/07/09 10:35:44;;;;;;;1.67;0.40;;;28.60;74.60;;;;;;4955234;28;20538;-82
2022/07/09 10:38:10;;;;;;;2.40;0.50;;;27.00;52.40;;;;;;4955500;29;20804;-82
2022/07/09 10:40:47;;;;;;;1.80;0.37;;;27.10;53.80;;;;;;4955471;29;20421;-83
2022/07/09 10:43:13;;;;;;;3.43;0.50;;;27.10;49.10;;;;;;4954217;29;20544;-84
2022/07/09 10:45:45;;;;;;;0.97;0.23;;;27.10;43.70;;;;;;4955102;29;20424;-83
2022/07/09 10:48:15;;;;;;;0.90;0.27;;;26.20;52.70;;;;;;4955304;29;20412;-84
2022/07/09 10:50:43;;;;;;;1.63;0.30;;;26.00;75.90;;;;;;4955306;29;20941;-82
2022/07/09 10:53:11;;;;;;;1.70;0.27;;;27.60;63.20;;;;;;4955318;29;20420;-83
2022/07/09 10:55:37;;;;;;;1.90;0.30;;;27.20;46.00;;;;;;4955277;29;20519;-85
2022/07/09 10:58:07;;;;;;;1.87;0.50;;;25.20;49.90;;;;;;4955169;29;20512;-86
2022/07/09 11:00:33;;;;;;;1.67;0.67;;;25.90;99.60;;;;;;4954860;29;20212;-83
2022/07/09 11:03:05;;;;;;;0.97;0.20;;;26.70;52.30;;;;;;4955138;29;20515;-81
2022/07/09 11:05:42;;;;;;;2.93;0.30;;;26.40;57.60;;;;;;4955225;29;20201;-80
2022/07/09 11:08:09;;;;;;;1.97;0.30;;;25.90;51.00;;;;;;4955116;29;20429;-79
2022/07/09 11:10:37;;;;;;;1.53;0.40;;;24.90;78.40;;;;;;4954851;29;20468;-78
2022/07/09 11:13:03;;;;;;;1.27;0.30;;;24.10;94.40;;;;;;4955068;29;20996;-80
2022/07/09 11:15:33;;;;;;;1.90;0.63;;;24.00;99.90;;;;;;4954726;29;20479;-84
2022/07/09 11:18:10;;;;;;;1.13;0.40;;;23.90;99.90;;;;;;4953740;29;20421;-86
2022/07/09 11:20:45;;;;;;;3.73;0.50;;;23.80;99.90;;;;;;4955034;29;20560;-84
2022/07/09 11:23:15;;;;;;;1.20;0.50;;;24.00;99.90;;;;;;4954867;29;20476;-86
2022/07/09 11:25:41;;;;;;;0.80;0.20;;;24.80;99.90;;;;;;4954918;29;20428;-83
2022/07/09 11:28:07;;;;;;;1.57;0.40;;;26.70;99.90;;;;;;4954922;29;20777;-83
2022/07/09 11:30:32;;;;;;;2.50;0.50;;;26.80;64.70;;;;;;4954576;29;20413;-81
2022/07/09 11:32:59;;;;;;;2.47;0.30;;;26.50;39.90;;;;;;4954937;29;20238;-82
2022/07/09 11:35:34;;;;;;;0.90;0.37;;;26.50;34.00;;;;;;4954842;29;20208;-85
2022/07/09 11:38:04;;;;;;;1.37;0.20;;;26.80;38.30;;;;;;4954738;29;20706;-84
2022/07/09 11:40:30;;;;;;;1.67;0.40;;;27.00;35.10;;;;;;4954797;29;20421;-86
2022/07/09 11:42:56;;;;;;;1.50;0.30;;;27.40;33.00;;;;;;4954770;29;20499;-86
2022/07/09 11:45:23;;;;;;;1.90;0.20;;;27.50;29.90;;;;;;4954224;29;20486;-85
2022/07/09 11:47:49;;;;;;;1.80;0.30;;;26.80;28.10;;;;;;4956258;28;20173;-86
2022/07/09 11:50:20;;;;;;;1.97;0.20;;;27.40;34.90;;;;;;4958640;29;20483;-85
2022/07/09 11:52:50;;;;;;;1.90;0.20;;;27.60;24.70;;;;;;4957447;29;20185;-88
2022/07/09 11:55:20;;;;;;;1.37;0.40;;;27.80;26.40;;;;;;4958580;29;20420;-83
2022/07/09 11:57:53;;;;;;;1.40;0.50;;;27.80;29.90;;;;;;4958462;29;20459;-85
2022/07/09 12:00:33;;;;;;;2.77;0.20;;;27.20;17.00;;;;;;4958358;29;20781;-85
2022/07/09 12:03:02;;;;;;;2.77;0.40;;;26.80;18.10;;;;;;4958228;28;20538;-85
2022/07/09 12:05:33;;;;;;;2.27;0.37;;;25.90;19.30;;;;;;4958289;29;20417;-86
2022/07/09 12:08:04;;;;;;;2.27;0.30;;;26.20;34.10;;;;;;4958406;29;20778;-86
2022/07/09 12:10:32;;;;;;;2.30;0.20;;;26.50;40.70;;;;;;4958056;29;20471;-84
2022/07/09 12:12:59;;;;;;;1.47;0.20;;;27.20;25.60;;;;;;4958165;29;20424;-86
2022/07/09 12:15:26;;;;;;;4.73;0.50;;;27.10;15.60;;;;;;4956585;29;20835;-86
2022/07/09 12:18:00;;;;;;;0.70;0.20;;;27.50;16.90;;;;;;4958076;29;20855;-86
2022/07/09 12:20:29;;;;;;;2.20;0.40;;;27.60;17.60;;;;;;4958124;29;20412;-85
2022/07/09 12:22:54;;;;;;;1.07;0.20;;;27.40;16.00;;;;;;4957959;29;20456;-86
2022/07/09 12:25:20;;;;;;;2.10;0.30;;;27.20;9.10;;;;;;4957989;29;20479;-85
2022/07/09 12:27:46;;;;;;;1.07;0.20;;;26.30;1.90;;;;;;4956642;29;20269;-85
2022/07/09 12:30:13;;;;;;;1.23;0.20;;;25.60;1.50;;;;;;4957546;29;20436;-87
2022/07/09 12:32:39;;;;;;;1.43;0.23;;;26.00;12.40;;;;;;4957853;29;20404;-84
2022/07/09 12:35:06;;;;;;;1.70;0.27;;;25.40;10.10;;;;;;4957773;29;20917;-85
2022/07/09 12:37:31;;;;;;;1.77;0.20;;;26.10;11.20;;;;;;4957681;28;20416;-85
2022/07/09 12:39:57;;;;;;;1.03;0.30;;;26.80;9.30;;;;;;4956478;29;20766;-85
2022/07/09 12:42:23;;;;;;;1.87;0.40;;;26.90;1.40;;;;;;4957616;29;20184;-88
2022/07/09 12:44:50;;;;;;;2.30;0.57;;;27.60;8.30;;;;;;4957327;29;20184;-87